createdAt,value
2023-03-28T00:00:58.580Z,74.88
2023-03-28T00:01:58.561Z,74.98
2023-03-28T00:02:58.587Z,74.04
2023-03-28T00:03:58.618Z,73.85
2023-03-28T00:04:58.552Z,73.66
2023-03-28T00:05:58.896Z,74.41
2023-03-28T00:06:58.578Z,74.79
2023-03-28T00:07:58.564Z,75.26
2023-03-28T00:08:58.578Z,75.26
2023-03-28T00:09:58.589Z,74.32
2023-03-28T00:10:58.561Z,73.66
2023-03-28T00:11:58.562Z,73.28
2023-03-28T00:12:58.553Z,73.66
2023-03-28T00:13:58.565Z,73.28
2023-03-28T00:14:58.557Z,72.53
2023-03-28T00:15:58.766Z,72.53
2023-03-28T00:16:58.556Z,72.62
2023-03-28T00:17:58.627Z,72.06
2023-03-28T00:18:58.561Z,71.87
2023-03-28T00:19:58.565Z,71.87
2023-03-28T00:20:58.557Z,71.96
2023-03-28T00:21:58.569Z,71.96
2023-03-28T00:22:58.583Z,71.87
2023-03-28T00:23:58.563Z,71.68
2023-03-28T00:24:58.565Z,71.02
2023-03-28T00:25:58.704Z,71.11
2023-03-28T00:26:58.562Z,70.92
2023-03-28T00:27:58.589Z,70.73
2023-03-28T00:28:58.579Z,71.11
2023-03-28T00:29:58.568Z,71.02
2023-03-28T00:30:58.652Z,71.58
2023-03-28T00:31:58.566Z,72.15
2023-03-28T00:32:58.592Z,72.62
2023-03-28T00:33:58.559Z,73.00
2023-03-28T00:34:58.558Z,72.81
2023-03-28T00:35:58.851Z,72.44
2023-03-28T00:36:58.565Z,73.10
2023-03-28T00:37:58.561Z,72.81
2023-03-28T00:38:58.586Z,72.53
2023-03-28T00:39:58.559Z,72.62
2023-03-28T00:40:58.559Z,72.72
2023-03-28T00:41:58.562Z,73.00
2023-03-28T00:42:58.561Z,72.81
2023-03-28T00:43:58.567Z,71.96
2023-03-28T00:44:58.564Z,71.68
2023-03-28T00:46:08.692Z,71.30
2023-03-28T00:46:58.571Z,70.54
2023-03-28T00:47:58.589Z,70.73
2023-03-28T00:48:58.555Z,71.11
2023-03-28T00:49:58.555Z,71.11
2023-03-28T00:50:58.554Z,72.06
2023-03-28T00:51:58.555Z,72.81
2023-03-28T00:52:58.554Z,72.81
2023-03-28T00:53:58.560Z,73.19
2023-03-28T00:54:58.571Z,73.10
2023-03-28T00:55:58.779Z,73.00
2023-03-28T00:56:58.568Z,71.87
2023-03-28T00:57:58.573Z,71.58
2023-03-28T00:58:58.553Z,71.11
2023-03-28T00:59:58.555Z,70.92
2023-03-28T01:00:58.581Z,71.21
2023-03-28T01:01:58.584Z,71.11
2023-03-28T01:02:58.648Z,71.11
2023-03-28T01:03:58.551Z,71.11
2023-03-28T01:04:58.549Z,71.11
2023-03-28T01:05:59.039Z,69.98
2023-03-28T01:06:58.551Z,70.64
2023-03-28T01:07:58.567Z,69.51
2023-03-28T01:08:58.550Z,68.57
2023-03-28T01:09:58.545Z,68.95
2023-03-28T01:10:58.563Z,68.38
2023-03-28T01:11:58.556Z,68.66
2023-03-28T01:12:58.540Z,68.85
2023-03-28T01:13:58.549Z,69.04
2023-03-28T01:14:58.545Z,69.70
2023-03-28T01:15:58.743Z,69.51
2023-03-28T01:16:58.540Z,69.32
2023-03-28T01:17:58.564Z,68.85
2023-03-28T01:18:58.543Z,68.10
2023-03-28T01:19:58.545Z,68.29
2023-03-28T01:20:58.544Z,67.72
2023-03-28T01:21:58.541Z,67.53
2023-03-28T01:22:58.543Z,67.53
2023-03-28T01:24:11.854Z,67.15
2023-03-28T01:24:58.536Z,67.06
2023-03-28T01:25:58.700Z,67.06
2023-03-28T01:26:58.561Z,67.81
2023-03-28T01:27:58.540Z,67.25
2023-03-28T01:28:58.543Z,67.91
2023-03-28T01:29:58.539Z,67.62
2023-03-28T01:30:58.538Z,67.81
2023-03-28T01:31:58.572Z,67.53
2023-03-28T01:32:58.575Z,67.62
2023-03-28T01:33:58.540Z,67.62
2023-03-28T01:34:58.541Z,67.81
2023-03-28T01:35:58.775Z,67.43
2023-03-28T01:36:58.533Z,67.62
2023-03-28T01:37:58.536Z,67.62
2023-03-28T01:38:58.539Z,67.72
2023-03-28T01:39:58.535Z,67.81
2023-03-28T01:40:58.533Z,68.00
2023-03-28T01:41:58.537Z,68.10
2023-03-28T01:42:58.562Z,68.57
2023-03-28T01:43:58.540Z,69.13
2023-03-28T01:44:58.533Z,69.23
2023-03-28T01:45:58.840Z,69.23
2023-03-28T01:46:58.532Z,69.70
2023-03-28T01:47:58.575Z,69.32
2023-03-28T01:48:58.535Z,69.42
2023-03-28T01:49:58.537Z,70.07
2023-03-28T01:50:58.532Z,70.26
2023-03-28T01:51:58.554Z,70.17
2023-03-28T01:52:58.530Z,70.07
2023-03-28T01:53:58.534Z,70.17
2023-03-28T01:54:58.530Z,70.26
2023-03-28T01:55:58.746Z,70.36
2023-03-28T01:56:58.655Z,70.26
2023-03-28T01:57:58.533Z,69.98
2023-03-28T01:58:58.557Z,70.07
2023-03-28T01:59:58.533Z,70.26
2023-03-28T02:00:58.567Z,70.26
2023-03-28T02:01:58.557Z,70.36
2023-03-28T02:02:58.574Z,69.89
2023-03-28T02:03:58.534Z,69.32
2023-03-28T02:04:58.531Z,69.23
2023-03-28T02:05:58.749Z,69.04
2023-03-28T02:06:58.589Z,69.32
2023-03-28T02:07:58.538Z,69.23
2023-03-28T02:08:58.528Z,69.60
2023-03-28T02:09:58.528Z,69.51
2023-03-28T02:10:58.541Z,69.79
2023-03-28T02:11:58.547Z,70.45
2023-03-28T02:12:58.528Z,70.07
2023-03-28T02:13:58.530Z,70.07
2023-03-28T02:14:58.551Z,70.17
2023-03-28T02:15:58.717Z,70.07
2023-03-28T02:16:58.529Z,69.70
2023-03-28T02:17:58.541Z,69.89
2023-03-28T02:18:58.536Z,69.13
2023-03-28T02:19:58.541Z,68.95
2023-03-28T02:20:58.531Z,68.76
2023-03-28T02:21:58.549Z,68.95
2023-03-28T02:22:58.534Z,69.32
2023-03-28T02:23:58.534Z,69.79
2023-03-28T02:24:58.532Z,69.32
2023-03-28T02:25:58.728Z,69.51
2023-03-28T02:26:58.534Z,69.51
2023-03-28T02:27:58.547Z,69.51
2023-03-28T02:28:58.530Z,69.32
2023-03-28T02:29:58.547Z,68.66
2023-03-28T02:30:58.571Z,68.00
2023-03-28T02:31:58.583Z,67.62
2023-03-28T02:32:58.544Z,68.19
2023-03-28T02:33:58.534Z,67.81
2023-03-28T02:34:58.530Z,68.10
2023-03-28T02:35:58.836Z,68.47
2023-03-28T02:36:58.536Z,68.29
2023-03-28T02:37:58.533Z,68.10
2023-03-28T02:38:58.557Z,68.19
2023-03-28T02:39:58.531Z,68.10
2023-03-28T02:40:58.535Z,68.38
2023-03-28T02:41:58.536Z,68.85
2023-03-28T02:42:58.533Z,68.85
2023-03-28T02:43:58.532Z,69.23
2023-03-28T02:44:58.530Z,68.76
2023-03-28T02:45:58.777Z,68.76
2023-03-28T02:47:00.737Z,68.47
2023-03-28T02:47:58.559Z,68.19
2023-03-28T02:48:58.528Z,67.15
2023-03-28T02:49:58.532Z,66.58
2023-03-28T02:50:58.539Z,65.92
2023-03-28T02:51:58.567Z,66.02
2023-03-28T02:52:58.533Z,65.83
2023-03-28T02:53:58.536Z,65.73
2023-03-28T02:54:58.532Z,65.64
2023-03-28T02:55:58.706Z,65.55
2023-03-28T02:56:58.545Z,65.92
2023-03-28T02:57:58.533Z,66.68
2023-03-28T02:58:58.532Z,66.40
2023-03-28T02:59:58.554Z,66.96
2023-03-28T03:00:58.526Z,67.34
2023-03-28T03:01:58.528Z,67.72
2023-03-28T03:02:58.633Z,68.29
2023-03-28T03:03:58.630Z,68.38
2023-03-28T03:04:58.532Z,68.10
2023-03-28T03:05:58.774Z,67.81
2023-03-28T03:06:58.531Z,67.43
2023-03-28T03:07:58.530Z,66.77
2023-03-28T03:08:58.552Z,66.11
2023-03-28T03:09:58.529Z,65.92
2023-03-28T03:10:58.535Z,66.68
2023-03-28T03:11:58.528Z,66.40
2023-03-28T03:12:58.534Z,66.40
2023-03-28T03:13:58.528Z,67.06
2023-03-28T03:14:58.524Z,67.34
2023-03-28T03:15:58.890Z,67.15
2023-03-28T03:16:58.524Z,67.43
2023-03-28T03:17:58.556Z,67.87
2023-03-28T03:18:58.544Z,67.49
2023-03-28T03:19:58.529Z,66.83
2023-03-28T03:20:58.524Z,66.83
2023-03-28T03:21:58.524Z,66.93
2023-03-28T03:22:58.520Z,66.55
2023-03-28T03:23:58.539Z,66.64
2023-03-28T03:24:58.519Z,66.93
2023-03-28T03:25:58.752Z,66.83
2023-03-28T03:26:58.516Z,66.74
2023-03-28T03:27:58.520Z,66.83
2023-03-28T03:28:58.538Z,66.83
2023-03-28T03:29:58.520Z,66.55
2023-03-28T03:30:58.541Z,67.02
2023-03-28T03:31:58.518Z,66.27
2023-03-28T03:32:58.560Z,66.46
2023-03-28T03:33:58.517Z,66.36
2023-03-28T03:34:58.537Z,66.36
2023-03-28T03:35:59.016Z,66.83
2023-03-28T03:36:58.511Z,66.46
2023-03-28T03:37:58.514Z,66.08
2023-03-28T03:38:58.512Z,65.61
2023-03-28T03:39:58.526Z,65.61
2023-03-28T03:40:58.517Z,65.89
2023-03-28T03:41:58.537Z,65.89
2023-03-28T03:42:58.561Z,66.46
2023-03-28T03:43:58.524Z,66.27
2023-03-28T03:44:58.506Z,66.55
2023-03-28T03:45:58.649Z,65.89
2023-03-28T03:46:58.526Z,65.99
2023-03-28T03:47:58.553Z,65.80
2023-03-28T03:48:58.505Z,65.23
2023-03-28T03:49:58.513Z,64.95
2023-03-28T03:50:58.532Z,64.58
2023-03-28T03:51:58.531Z,64.10
2023-03-28T03:52:58.522Z,64.39
2023-03-28T03:53:58.517Z,64.48
2023-03-28T03:54:58.503Z,64.58
2023-03-28T03:55:58.787Z,64.29
2023-03-28T03:56:58.547Z,64.10
2023-03-28T03:57:58.509Z,63.73
2023-03-28T03:58:58.512Z,63.82
2023-03-28T03:59:58.498Z,63.54
2023-03-28T04:00:58.506Z,63.06
2023-03-28T04:01:58.523Z,62.34
2023-03-28T04:02:58.529Z,61.74
2023-03-28T04:03:58.513Z,62.25
2023-03-28T04:04:58.498Z,62.78
2023-03-28T04:05:58.813Z,64.48
2023-03-28T04:06:58.521Z,65.52
2023-03-28T04:07:58.494Z,66.27
2023-03-28T04:08:58.498Z,67.40
2023-03-28T04:09:58.498Z,68.72
2023-03-28T04:10:58.497Z,69.38
2023-03-28T04:11:58.500Z,70.23
2023-03-28T04:12:58.498Z,70.23
2023-03-28T04:13:58.510Z,69.85
2023-03-28T04:14:58.499Z,69.00
2023-03-28T04:15:58.774Z,69.29
2023-03-28T04:16:58.489Z,68.82
2023-03-28T04:17:58.491Z,68.25
2023-03-28T04:18:58.492Z,68.25
2023-03-28T04:19:58.488Z,69.00
2023-03-28T04:20:58.489Z,70.32
2023-03-28T04:21:58.485Z,70.79
2023-03-28T04:22:58.508Z,70.89
2023-03-28T04:23:58.650Z,71.36
2023-03-28T04:24:58.483Z,70.98
2023-03-28T04:25:58.758Z,71.83
2023-03-28T04:26:58.511Z,71.45
2023-03-28T04:27:58.488Z,72.21
2023-03-28T04:28:58.487Z,72.49
2023-03-28T04:29:58.475Z,71.45
2023-03-28T04:30:58.512Z,70.98
2023-03-28T04:31:58.477Z,69.67
2023-03-28T04:32:58.515Z,69.19
2023-03-28T04:33:58.480Z,69.48
2023-03-28T04:34:58.484Z,69.76
2023-03-28T04:35:58.678Z,69.67
2023-03-28T04:36:58.479Z,70.51
2023-03-28T04:37:58.473Z,70.61
2023-03-28T04:38:58.498Z,71.26
2023-03-28T04:39:58.474Z,72.02
2023-03-28T04:40:58.474Z,72.96
2023-03-28T04:41:58.500Z,73.81
2023-03-28T04:42:58.473Z,74.28
2023-03-28T04:43:58.474Z,74.57
2023-03-28T04:44:58.467Z,74.28
2023-03-28T04:45:58.884Z,74.38
2023-03-28T04:46:58.469Z,74.00
2023-03-28T04:47:58.507Z,73.53
2023-03-28T04:48:58.464Z,73.62
2023-03-28T04:49:58.463Z,73.43
2023-03-28T04:50:58.466Z,73.53
2023-03-28T04:51:58.465Z,73.34
2023-03-28T04:52:58.499Z,73.53
2023-03-28T04:53:58.453Z,73.53
2023-03-28T04:54:58.571Z,73.72
2023-03-28T04:55:58.769Z,74.19
2023-03-28T04:56:58.508Z,74.57
2023-03-28T04:57:58.461Z,74.38
2023-03-28T04:58:58.454Z,74.57
2023-03-28T04:59:58.457Z,74.57
2023-03-28T05:00:58.849Z,74.38
2023-03-28T05:01:58.518Z,74.38
2023-03-28T05:02:58.504Z,74.19
2023-03-28T05:03:58.442Z,74.57
2023-03-28T05:04:58.445Z,73.81
2023-03-28T05:05:58.446Z,73.53
2023-03-28T05:06:58.446Z,72.44
2023-03-28T05:07:58.446Z,71.11
2023-03-28T05:08:58.446Z,70.70
2023-03-28T05:09:58.496Z,69.10
2023-03-28T05:10:58.581Z,67.15
2023-03-28T05:11:58.433Z,65.92
2023-03-28T05:12:58.480Z,65.64
2023-03-28T05:13:58.424Z,65.64
2023-03-28T05:14:58.449Z,65.83
2023-03-28T05:15:58.454Z,66.40
2023-03-28T05:16:58.424Z,66.87
2023-03-28T05:17:58.479Z,67.62
2023-03-28T05:18:58.980Z,67.62
2023-03-28T05:19:58.419Z,67.62
2023-03-28T05:20:58.668Z,67.62
2023-03-28T05:21:58.422Z,67.91
2023-03-28T05:22:58.416Z,67.34
2023-03-28T05:23:58.418Z,67.15
2023-03-28T05:24:58.413Z,66.58
2023-03-28T05:25:58.412Z,66.68
2023-03-28T05:26:58.436Z,66.11
2023-03-28T05:27:58.413Z,65.45
2023-03-28T05:28:58.415Z,65.55
2023-03-28T05:29:58.406Z,64.61
2023-03-28T05:30:58.551Z,64.04
2023-03-28T05:31:58.436Z,63.47
2023-03-28T05:32:58.485Z,63.38
2023-03-28T05:33:58.399Z,62.53
2023-03-28T05:34:58.405Z,62.43
2023-03-28T05:35:58.469Z,62.43
2023-03-28T05:36:58.401Z,62.43
2023-03-28T05:37:58.401Z,62.06
2023-03-28T05:38:58.418Z,61.96
2023-03-28T05:39:58.401Z,61.77
2023-03-28T05:40:58.794Z,61.21
2023-03-28T05:41:58.400Z,61.02
2023-03-28T05:42:58.443Z,60.46
2023-03-28T05:43:58.400Z,59.99
2023-03-28T05:44:58.397Z,60.08
2023-03-28T05:45:58.433Z,59.99
2023-03-28T05:46:58.406Z,59.42
2023-03-28T05:47:58.446Z,59.80
2023-03-28T05:48:58.392Z,59.80
2023-03-28T05:49:58.391Z,59.33
2023-03-28T05:50:58.635Z,59.14
2023-03-28T05:51:58.395Z,58.76
2023-03-28T05:52:58.400Z,58.10
2023-03-28T05:53:58.384Z,58.00
2023-03-28T05:54:58.401Z,57.53
2023-03-28T05:55:58.385Z,56.59
2023-03-28T05:56:58.430Z,56.40
2023-03-28T05:57:58.381Z,56.12
2023-03-28T05:58:58.400Z,55.46
2023-03-28T05:59:58.374Z,53.76
2023-03-28T06:00:58.642Z,52.25
2023-03-28T06:01:58.385Z,51.21
2023-03-28T06:02:58.482Z,50.74
2023-03-28T06:03:58.426Z,49.89
2023-03-28T06:04:58.441Z,50.55
2023-03-28T06:05:58.373Z,49.99
2023-03-28T06:06:58.375Z,50.08
2023-03-28T06:07:58.377Z,49.14
2023-03-28T06:08:58.373Z,48.47
2023-03-28T06:09:58.366Z,48.00
2023-03-28T06:10:58.551Z,47.53
2023-03-28T06:11:58.376Z,46.59
2023-03-28T06:12:58.394Z,45.55
2023-03-28T06:13:58.366Z,44.32
2023-03-28T06:14:58.391Z,43.76
2023-03-28T06:15:58.368Z,43.48
2023-03-28T06:16:58.380Z,43.19
2023-03-28T06:17:58.427Z,42.91
2023-03-28T06:19:10.354Z,42.72
2023-03-28T06:19:58.408Z,42.25
2023-03-28T06:20:58.548Z,42.16
2023-03-28T06:21:58.369Z,41.88
2023-03-28T06:22:58.364Z,41.97
2023-03-28T06:23:58.358Z,42.25
2023-03-28T06:24:58.363Z,42.82
2023-03-28T06:25:58.360Z,42.72
2023-03-28T06:26:58.359Z,42.35
2023-03-28T06:27:58.360Z,42.25
2023-03-28T06:28:58.372Z,42.07
2023-03-28T06:29:58.357Z,41.69
2023-03-28T06:30:58.659Z,41.69
2023-03-28T06:31:58.417Z,41.80
2023-03-28T06:32:58.362Z,41.24
2023-03-28T06:33:58.357Z,39.63
2023-03-28T06:34:58.359Z,38.78
2023-03-28T06:35:58.405Z,36.42
2023-03-28T06:36:58.363Z,35.19
2023-03-28T06:37:58.373Z,34.44
2023-03-28T06:38:58.453Z,34.06
2023-03-28T06:39:58.356Z,33.78
2023-03-28T06:40:58.460Z,33.69
2023-03-28T06:41:58.364Z,33.78
2023-03-28T06:42:58.365Z,34.34
2023-03-28T06:43:58.356Z,35.19
2023-03-28T06:44:58.363Z,35.95
2023-03-28T06:45:58.393Z,37.46
2023-03-28T06:46:58.388Z,37.74
2023-03-28T06:47:58.400Z,38.59
2023-03-28T06:48:58.364Z,39.06
2023-03-28T06:49:58.360Z,39.54
2023-03-28T06:50:58.533Z,39.06
2023-03-28T06:51:58.360Z,39.35
2023-03-28T06:52:58.363Z,39.25
2023-03-28T06:53:58.384Z,38.78
2023-03-28T06:54:58.367Z,37.93
2023-03-28T06:55:58.361Z,37.37
2023-03-28T06:56:58.411Z,37.29
2023-03-28T06:57:58.361Z,37.01
2023-03-28T06:58:58.366Z,36.54
2023-03-28T06:59:58.374Z,36.35
2023-03-28T07:00:58.728Z,35.88
2023-03-28T07:01:58.460Z,36.82
2023-03-28T07:02:58.487Z,38.14
2023-03-28T07:03:58.441Z,39.28
2023-03-28T07:04:58.374Z,39.94
2023-03-28T07:05:58.387Z,40.78
2023-03-28T07:06:58.384Z,40.41
2023-03-28T07:07:58.373Z,40.41
2023-03-28T07:08:58.388Z,40.97
2023-03-28T07:09:58.371Z,41.25
2023-03-28T07:10:58.690Z,40.97
2023-03-28T07:11:58.372Z,40.41
2023-03-28T07:12:58.378Z,40.41
2023-03-28T07:13:58.392Z,40.78
2023-03-28T07:14:58.380Z,40.97
2023-03-28T07:15:58.376Z,42.20
2023-03-28T07:16:58.504Z,43.15
2023-03-28T07:17:58.420Z,44.56
2023-03-28T07:18:58.470Z,45.22
2023-03-28T07:19:58.386Z,46.26
2023-03-28T07:21:03.922Z,46.73
2023-03-28T07:21:58.386Z,47.67
2023-03-28T07:22:58.392Z,47.67
2023-03-28T07:23:58.385Z,48.05
2023-03-28T07:24:58.391Z,48.15
2023-03-28T07:25:58.395Z,46.92
2023-03-28T07:27:14.087Z,45.22
2023-03-28T07:27:58.411Z,43.15
2023-03-28T07:28:58.397Z,42.01
2023-03-28T07:29:58.397Z,43.05
2023-03-28T07:30:58.675Z,44.56
2023-03-28T07:31:58.432Z,45.34
2023-03-28T07:33:10.915Z,46.07
2023-03-28T07:33:58.424Z,46.56
2023-03-28T07:34:58.428Z,47.04
2023-03-28T07:35:58.428Z,47.04
2023-03-28T07:36:58.416Z,45.15
2023-03-28T07:37:58.416Z,43.16
2023-03-28T07:38:58.418Z,41.56
2023-03-28T07:39:58.418Z,40.61
2023-03-28T07:40:58.607Z,39.39
2023-03-28T07:41:58.427Z,38.44
2023-03-28T07:42:58.419Z,37.12
2023-03-28T07:43:58.415Z,36.55
2023-03-28T07:44:58.419Z,35.42
2023-03-28T07:45:58.459Z,34.95
2023-03-28T07:46:58.426Z,34.95
2023-03-28T07:47:58.470Z,35.42
2023-03-28T07:48:58.441Z,35.61
2023-03-28T07:49:58.429Z,36.27
2023-03-28T07:50:58.655Z,37.71
2023-03-28T07:51:58.430Z,40.35
2023-03-28T07:52:58.436Z,41.67
2023-03-28T07:53:58.435Z,42.43
2023-03-28T07:54:58.453Z,43.95
2023-03-28T07:55:58.451Z,44.60
2023-03-28T07:56:58.496Z,43.95
2023-03-28T07:57:58.474Z,42.34
2023-03-28T07:58:58.456Z,40.54
2023-03-28T07:59:58.447Z,39.22
2023-03-28T08:00:58.614Z,36.76
2023-03-28T08:01:58.454Z,35.35
2023-03-28T08:02:58.518Z,33.45
2023-03-28T08:03:58.565Z,32.89
2023-03-28T08:04:58.462Z,31.94
2023-03-28T08:05:58.538Z,32.23
2023-03-28T08:06:58.494Z,33.45
2023-03-28T08:07:58.474Z,34.97
2023-03-28T08:08:58.482Z,36.85
2023-03-28T08:09:59.039Z,39.22
2023-03-28T08:10:58.673Z,40.16
2023-03-28T08:11:58.475Z,39.50
2023-03-28T08:12:58.482Z,40.19
2023-03-28T08:13:58.488Z,39.52
2023-03-28T08:14:58.488Z,39.43
2023-03-28T08:15:58.544Z,40.19
2023-03-28T08:16:58.491Z,40.47
2023-03-28T08:17:58.542Z,40.94
2023-03-28T08:19:09.761Z,41.70
2023-03-28T08:19:58.506Z,43.59
2023-03-28T08:20:58.704Z,45.95
2023-03-28T08:21:58.512Z,47.56
2023-03-28T08:22:58.547Z,50.78
2023-03-28T08:23:58.515Z,53.23
2023-03-28T08:24:58.521Z,52.38
2023-03-28T08:25:58.525Z,52.95
2023-03-28T08:26:58.525Z,54.46
2023-03-28T08:27:58.537Z,54.08
2023-03-28T08:28:58.526Z,55.79
2023-03-28T08:29:58.537Z,56.63
2023-03-28T08:30:58.795Z,57.39
2023-03-28T08:31:58.556Z,58.62
2023-03-28T08:32:58.618Z,58.15
2023-03-28T08:33:58.557Z,58.72
2023-03-28T08:34:58.561Z,59.09
2023-03-28T08:35:58.582Z,59.19
2023-03-28T08:36:58.559Z,59.09
2023-03-28T08:37:58.569Z,57.96
2023-03-28T08:38:58.591Z,57.99
2023-03-28T08:39:58.575Z,57.33
2023-03-28T08:40:58.737Z,57.33
2023-03-28T08:41:58.582Z,57.61
2023-03-28T08:42:58.596Z,57.71
2023-03-28T08:43:58.587Z,57.04
2023-03-28T08:44:58.587Z,55.06
2023-03-28T08:45:58.601Z,54.68
2023-03-28T08:46:58.613Z,55.06
2023-03-28T08:47:58.647Z,55.15
2023-03-28T08:48:58.612Z,55.53
2023-03-28T08:49:58.616Z,54.68
2023-03-28T08:50:58.907Z,54.68
2023-03-28T08:51:58.624Z,52.03
2023-03-28T08:52:58.621Z,52.12
2023-03-28T08:53:58.629Z,52.41
2023-03-28T08:54:58.686Z,52.69
2023-03-28T08:55:58.640Z,52.31
2023-03-28T08:56:58.685Z,51.93
2023-03-28T08:57:58.657Z,51.84
2023-03-28T08:58:58.649Z,50.90
2023-03-28T08:59:58.657Z,50.02
2023-03-28T09:00:58.836Z,50.90
2023-03-28T09:01:58.731Z,52.31
2023-03-28T09:02:58.753Z,52.50
2023-03-28T09:03:58.717Z,52.98
2023-03-28T09:05:11.970Z,53.55
2023-03-28T09:05:58.916Z,52.88
2023-03-28T09:06:58.689Z,51.75
2023-03-28T09:07:58.695Z,51.49
2023-03-28T09:08:58.699Z,52.72
2023-03-28T09:09:58.707Z,52.12
2023-03-28T09:10:59.214Z,51.65
2023-03-28T09:11:58.716Z,54.14
2023-03-28T09:12:58.726Z,56.03
2023-03-28T09:13:58.727Z,56.76
2023-03-28T09:14:58.730Z,56.98
2023-03-28T09:15:58.821Z,57.45
2023-03-28T09:16:58.764Z,57.73
2023-03-28T09:17:58.817Z,56.88
2023-03-28T09:18:58.752Z,57.54
2023-03-28T09:19:58.755Z,56.51
2023-03-28T09:20:59.053Z,57.73
2023-03-28T09:22:08.884Z,56.13
2023-03-28T09:22:58.771Z,56.98
2023-03-28T09:23:58.777Z,58.30
2023-03-28T09:24:58.782Z,58.02
2023-03-28T09:26:01.093Z,57.54
2023-03-28T09:26:58.815Z,58.78
2023-03-28T09:27:58.800Z,59.25
2023-03-28T09:28:58.814Z,58.97
2023-03-28T09:29:58.838Z,58.02
2023-03-28T09:30:59.065Z,57.92
2023-03-28T09:31:58.877Z,57.17
2023-03-28T09:32:58.897Z,56.98
2023-03-28T09:33:58.836Z,56.60
2023-03-28T09:34:58.835Z,58.81
2023-03-28T09:35:58.868Z,59.19
2023-03-28T09:36:58.852Z,59.09
2023-03-28T09:37:58.865Z,58.33
2023-03-28T09:38:58.863Z,57.86
2023-03-28T09:39:58.870Z,57.39
2023-03-28T09:40:59.234Z,58.11
2023-03-28T09:41:58.885Z,58.78
2023-03-28T09:42:58.904Z,60.41
2023-03-28T09:43:59.324Z,60.13
2023-03-28T09:44:58.904Z,60.70
2023-03-28T09:45:58.941Z,60.67
2023-03-28T09:46:58.909Z,60.96
2023-03-28T09:47:58.985Z,61.05
2023-03-28T09:48:58.997Z,60.67
2023-03-28T09:50:09.593Z,59.06
2023-03-28T09:50:59.091Z,59.91
2023-03-28T09:51:58.951Z,61.33
2023-03-28T09:52:58.946Z,60.19
2023-03-28T09:53:58.960Z,61.74
2023-03-28T09:54:59.002Z,62.88
2023-03-28T09:56:04.347Z,64.01
2023-03-28T09:56:59.006Z,63.76
2023-03-28T09:57:59.003Z,62.24
2023-03-28T09:58:59.012Z,62.08
2023-03-28T09:59:59.005Z,60.67
2023-03-28T10:00:59.163Z,60.70
2023-03-28T10:01:59.068Z,60.13
2023-03-28T10:02:59.064Z,59.27
2023-03-28T10:03:59.024Z,58.14
2023-03-28T10:04:59.113Z,56.46
2023-03-28T10:05:59.039Z,54.56
2023-03-28T10:06:59.041Z,54.75
2023-03-28T10:07:59.050Z,54.72
2023-03-28T10:08:59.054Z,56.15
2023-03-28T10:09:59.066Z,56.34
2023-03-28T10:10:59.289Z,56.43
2023-03-28T10:11:59.085Z,55.89
2023-03-28T10:12:59.085Z,54.27
2023-03-28T10:13:59.096Z,53.23
2023-03-28T10:14:59.123Z,51.78
2023-03-28T10:15:59.144Z,50.05
2023-03-28T10:16:59.114Z,49.60
2023-03-28T10:17:59.191Z,51.12
2023-03-28T10:18:59.138Z,51.97
2023-03-28T10:19:59.142Z,52.98
2023-03-28T10:20:59.351Z,52.33
2023-03-28T10:21:59.158Z,52.33
2023-03-28T10:22:59.164Z,51.57
2023-03-28T10:23:59.191Z,51.18
2023-03-28T10:24:59.182Z,51.57
2023-03-28T10:25:59.191Z,52.80
2023-03-28T10:26:59.204Z,54.47
2023-03-28T10:27:59.216Z,56.09
2023-03-28T10:28:59.849Z,56.12
2023-03-28T10:29:59.226Z,56.12
2023-03-28T10:30:59.637Z,55.76
2023-03-28T10:31:59.263Z,53.49
2023-03-28T10:32:59.315Z,53.39
2023-03-28T10:33:59.280Z,51.59
2023-03-28T10:34:59.266Z,50.34
2023-03-28T10:35:59.332Z,50.24
2023-03-28T10:36:59.283Z,52.83
2023-03-28T10:37:59.304Z,53.46
2023-03-28T10:38:59.300Z,53.56
2023-03-28T10:39:59.367Z,54.88
2023-03-28T10:40:59.614Z,56.68
2023-03-28T10:41:59.347Z,59.15
2023-03-28T10:42:59.336Z,60.76
2023-03-28T10:43:59.364Z,62.66
2023-03-28T10:44:59.369Z,62.75
2023-03-28T10:45:59.382Z,63.32
2023-03-28T10:46:59.428Z,60.22
2023-03-28T10:47:59.429Z,61.05
2023-03-28T10:48:59.385Z,62.66
2023-03-28T10:49:59.395Z,64.81
2023-03-28T10:50:59.529Z,63.79
2023-03-28T10:51:59.425Z,62.66
2023-03-28T10:52:59.418Z,61.61
2023-03-28T10:53:59.431Z,62.08
2023-03-28T10:54:59.435Z,64.17
2023-03-28T10:56:00.125Z,63.60
2023-03-28T10:56:59.498Z,64.68
2023-03-28T10:57:59.467Z,64.97
2023-03-28T10:58:59.471Z,62.72
2023-03-28T10:59:59.498Z,61.96
2023-03-28T11:00:59.680Z,61.20
2023-03-28T11:01:59.541Z,58.17
2023-03-28T11:02:59.576Z,58.61
2023-03-28T11:03:59.560Z,59.34
2023-03-28T11:04:59.543Z,61.55
2023-03-28T11:06:08.946Z,62.85
2023-03-28T11:06:59.540Z,62.66
2023-03-28T11:07:59.551Z,60.41
2023-03-28T11:08:59.553Z,62.21
2023-03-28T11:09:59.568Z,62.12
2023-03-28T11:10:59.754Z,59.18
2023-03-28T11:11:59.585Z,58.96
2023-03-28T11:12:59.588Z,58.11
2023-03-28T11:13:59.604Z,56.68
2023-03-28T11:14:59.609Z,62.18
2023-03-28T11:15:59.642Z,64.55
2023-03-28T11:16:59.629Z,59.78
2023-03-28T11:17:59.671Z,59.22
2023-03-28T11:18:59.668Z,59.63
2023-03-28T11:19:59.659Z,60.98
2023-03-28T11:20:59.850Z,59.27
2023-03-28T11:21:59.685Z,58.04
2023-03-28T11:23:05.634Z,58.96
2023-03-28T11:23:59.688Z,60.28
2023-03-28T11:24:59.707Z,61.49
2023-03-28T11:25:59.711Z,61.52
2023-03-28T11:27:12.488Z,62.85
2023-03-28T11:27:59.730Z,63.42
2023-03-28T11:28:59.727Z,63.23
2023-03-28T11:29:59.742Z,63.79
2023-03-28T11:30:59.906Z,63.04
2023-03-28T11:31:59.824Z,62.85
2023-03-28T11:32:59.865Z,61.90
2023-03-28T11:33:59.781Z,61.96
2023-03-28T11:34:59.800Z,61.30
2023-03-28T11:35:59.825Z,62.43
2023-03-28T11:36:59.799Z,66.07
2023-03-28T11:37:59.808Z,65.94
2023-03-28T11:38:59.815Z,64.71
2023-03-28T11:39:59.838Z,64.04
2023-03-28T11:41:00.031Z,65.94
2023-03-28T11:41:59.846Z,63.85
2023-03-28T11:42:59.849Z,66.32
2023-03-28T11:43:59.882Z,66.45
2023-03-28T11:44:59.862Z,65.03
2023-03-28T11:45:59.926Z,64.87
2023-03-28T11:46:59.904Z,63.82
2023-03-28T11:47:59.928Z,62.97
2023-03-28T11:48:59.903Z,63.64
2023-03-28T11:49:59.911Z,62.21
2023-03-28T11:51:00.261Z,60.31
2023-03-28T11:51:59.930Z,61.46
2023-03-28T11:52:59.930Z,58.17
2023-03-28T11:53:59.949Z,51.68
2023-03-28T11:54:59.949Z,51.97
2023-03-28T11:56:00.240Z,52.35
2023-03-28T11:56:59.998Z,55.55
2023-03-28T11:57:59.976Z,58.96
2023-03-28T11:58:59.983Z,61.24
2023-03-28T12:00:00.023Z,61.14
2023-03-28T12:01:00.247Z,62.69
2023-03-28T12:02:00.061Z,64.01
2023-03-28T12:03:00.206Z,64.11
2023-03-28T12:04:00.137Z,63.76
2023-03-28T12:05:00.033Z,62.82
2023-03-28T12:06:04.526Z,65.06
2023-03-28T12:07:03.242Z,61.24
2023-03-28T12:08:00.095Z,61.74
2023-03-28T12:09:00.118Z,63.45
2023-03-28T12:10:00.096Z,62.05
2023-03-28T12:11:00.466Z,60.70
2023-03-28T12:12:00.123Z,64.05
2023-03-28T12:13:00.130Z,60.25
2023-03-28T12:14:11.737Z,60.44
2023-03-28T12:15:00.124Z,62.43
2023-03-28T12:16:00.151Z,61.11
2023-03-28T12:17:00.205Z,60.41
2023-03-28T12:18:00.249Z,59.66
2023-03-28T12:19:00.227Z,57.85
2023-03-28T12:20:00.185Z,58.23
2023-03-28T12:21:00.478Z,59.68
2023-03-28T12:22:00.198Z,58.89
2023-03-28T12:23:00.252Z,56.24
2023-03-28T12:24:00.249Z,58.20
2023-03-28T12:25:00.323Z,57.82
2023-03-28T12:26:00.235Z,57.92
2023-03-28T12:27:00.240Z,58.96
2023-03-28T12:28:00.251Z,58.23
2023-03-28T12:29:00.255Z,57.19
2023-03-28T12:30:00.311Z,56.68
2023-03-28T12:31:00.546Z,56.81
2023-03-28T12:32:00.286Z,56.99
2023-03-28T12:33:00.310Z,55.76
2023-03-28T12:34:00.304Z,54.44
2023-03-28T12:35:00.311Z,55.32
2023-03-28T12:36:00.492Z,55.51
2023-03-28T12:37:00.332Z,54.53
2023-03-28T12:38:00.336Z,58.83
2023-03-28T12:39:00.368Z,60.44
2023-03-28T12:40:00.353Z,57.88
2023-03-28T12:41:00.648Z,55.13
2023-03-28T12:42:00.399Z,56.93
2023-03-28T12:43:00.388Z,56.01
2023-03-28T12:44:00.399Z,53.42
2023-03-28T12:45:00.405Z,52.66
2023-03-28T12:46:00.445Z,52.95
2023-03-28T12:47:00.420Z,50.95
2023-03-28T12:48:00.474Z,50.74
2023-03-28T12:49:00.445Z,51.21
2023-03-28T12:50:00.447Z,53.77
2023-03-28T12:51:00.619Z,53.77
2023-03-28T12:52:00.462Z,58.14
2023-03-28T12:53:00.479Z,56.71